Portada
METAR-TAF:

METAR-TAF

Aeropuertos :

Aeropuerto Internacional de Marsa Alam

Marsa Alam, Egipto

latitud: 25-33-25N, longitud: 34-35-01E, altitud: 77 m

METAR: falta

Hora: 17:03 (15:03 UTC)

Pronóstico

El informe se hizo hace 4 horas y 3 minutos, a las 11:00 UTC
Pronóstico válido del 04 a las 12 UTC al 05 a las 18 UTC
Viento 6 kt del norte con ráfagas de 18 kt
Visibilidad 10 km o más
sin nubes por debajo de 1500 m y sin presencia de cumulonimbus.

TAF: HEMA 041100Z 0412/0518 36006G18KT CAVOK

Observaciones y pronósticos meteorológicos de más de 4000 aeropuertos (mensajes METAR y TAF).

Los puntos amarillos y rojos representan las estaciones disponibles.

Ponga el ratón en el punto deseado para ver el nombre de la estación.

Haga clic para ver las observaciones y los pronósticos meteorológicos.

Para cambiar el mapa : haga clic en los botones verdes con una cruz de color negro para hacer un zoom, en el botón verde con un guión para alejar o en las flechas verdes para mapas adyacentes.


METAR-TAF: